Terminal Aerodrome Forecast
Issued by NWS Goodland, KS

Home | Current Version | Previous Version | Text Only | Print | Product List | Glossary On
Versions: 1 2 3 4 5 6 7 8 9 10 11 12 13 14 15 16 17 18 19
894
FTUS43 KGLD 231749
TAFGLD
TAF
KGLD 231749Z 2318/2418 21007KT P6SM SCT020 BKN030
     FM232000 17011KT P6SM -SHRA VCTS SCT030CB OVC070
     FM240000 17018KT P6SM -TSRA SCT030CB OVC080
     FM240600 16012KT P6SM -SHRA VCTS OVC030CB
     FM241300 18009KT P6SM -SHRA OVC020=

USA.gov is the U.S. government's official web portal to all federal, state and local government web resources and services.